createdAt,value
2018-01-27T00:00:49.136Z,131.73
2018-01-27T00:03:16.686Z,138.00
2018-01-27T00:05:44.909Z,126.63
2018-01-27T00:08:12.448Z,137.87
2018-01-27T00:10:40.082Z,125.47
2018-01-27T00:13:08.442Z,129.53
2018-01-27T00:15:35.992Z,125.23
2018-01-27T00:18:03.577Z,139.57
2018-01-27T00:20:32.800Z,136.37
2018-01-27T00:23:00.380Z,123.20
2018-01-27T00:25:27.940Z,125.87
2018-01-27T00:27:55.941Z,141.17
2018-01-27T00:30:23.496Z,112.27
2018-01-27T00:32:51.038Z,133.03
2018-01-27T00:35:18.722Z,123.40
2018-01-27T00:37:47.097Z,128.20
2018-01-27T00:40:14.685Z,124.43
2018-01-27T00:42:42.999Z,138.70
2018-01-27T00:45:10.585Z,132.20
2018-01-27T00:47:38.132Z,112.97
2018-01-27T00:50:05.675Z,135.53
2018-01-27T00:52:33.253Z,130.07
2018-01-27T00:55:00.818Z,131.37
2018-01-27T00:57:28.438Z,128.77
2018-01-27T00:59:55.972Z,130.40
2018-01-27T01:02:24.216Z,147.60
2018-01-27T01:04:51.799Z,140.60
2018-01-27T01:07:20.849Z,134.57
2018-01-27T01:09:48.491Z,138.20
2018-01-27T01:12:15.997Z,151.20
2018-01-27T01:14:43.758Z,148.80
2018-01-27T01:17:11.309Z,151.73
2018-01-27T01:19:39.161Z,130.97
2018-01-27T01:22:06.709Z,145.67
2018-01-27T01:24:34.266Z,143.60
2018-01-27T01:27:01.861Z,160.90
2018-01-27T01:29:29.408Z,132.10
2018-01-27T01:31:56.993Z,133.50
2018-01-27T01:34:24.536Z,156.73
2018-01-27T01:36:52.132Z,137.50
2018-01-27T01:39:19.668Z,121.63
2018-01-27T01:41:47.628Z,127.27
2018-01-27T01:44:20.726Z,138.33
2018-01-27T01:46:48.588Z,124.10
2018-01-27T01:49:23.896Z,139.03
2018-01-27T01:51:51.725Z,136.93
2018-01-27T01:54:19.290Z,139.60
2018-01-27T01:56:47.610Z,136.37
2018-01-27T01:59:15.439Z,140.27
2018-01-27T02:01:43.777Z,136.80
2018-01-27T02:04:11.366Z,126.77
2018-01-27T02:06:39.684Z,137.57
2018-01-27T02:09:07.295Z,122.53
2018-01-27T02:11:34.865Z,121.17
2018-01-27T02:14:02.812Z,123.13
2018-01-27T02:16:30.387Z,132.70
2018-01-27T02:18:57.960Z,133.10
2018-01-27T02:21:26.335Z,143.40
2018-01-27T02:23:53.915Z,143.10
2018-01-27T02:26:21.544Z,151.53
2018-01-27T02:28:49.118Z,142.53
2018-01-27T02:31:17.050Z,140.57
2018-01-27T02:33:44.691Z,144.87
2018-01-27T02:36:12.230Z,135.13
2018-01-27T02:38:39.817Z,127.70
2018-01-27T02:41:07.361Z,150.43
2018-01-27T02:43:34.946Z,136.90
2018-01-27T02:46:02.484Z,129.60
2018-01-27T02:48:30.474Z,135.03
2018-01-27T02:50:58.018Z,120.10
2018-01-27T02:53:25.551Z,145.83
2018-01-27T02:55:53.267Z,119.80
2018-01-27T02:58:20.814Z,130.93
2018-01-27T03:00:48.407Z,143.40
2018-01-27T03:03:16.713Z,128.53
2018-01-27T03:05:44.895Z,131.03
2018-01-27T03:08:12.442Z,129.60
2018-01-27T03:10:39.992Z,144.13
2018-01-27T03:13:07.748Z,132.97
2018-01-27T03:15:36.058Z,121.53
2018-01-27T03:18:04.044Z,125.90
2018-01-27T03:20:31.666Z,128.30
2018-01-27T03:22:59.209Z,135.07
2018-01-27T03:25:27.569Z,139.07
2018-01-27T03:27:56.625Z,125.07
2018-01-27T03:30:24.229Z,131.37
2018-01-27T03:32:51.756Z,137.20
2018-01-27T03:35:19.728Z,138.83
2018-01-27T03:37:47.328Z,142.13
2018-01-27T03:40:14.892Z,137.80
2018-01-27T03:42:43.246Z,132.17
2018-01-27T03:45:12.459Z,136.03
2018-01-27T03:47:40.813Z,132.50
2018-01-27T03:50:08.409Z,140.43
2018-01-27T03:52:36.818Z,133.73
2018-01-27T03:55:04.361Z,124.60
2018-01-27T03:57:32.993Z,122.90
2018-01-27T04:00:00.533Z,138.90
2018-01-27T04:02:28.084Z,130.03
2018-01-27T04:04:55.675Z,121.47
2018-01-27T04:07:23.210Z,142.40
2018-01-27T04:09:51.273Z,136.57
2018-01-27T04:12:18.816Z,129.13
2018-01-27T04:14:46.358Z,134.33
2018-01-27T04:17:13.931Z,115.17
2018-01-27T04:19:41.501Z,124.03
2018-01-27T04:22:09.402Z,142.63
2018-01-27T04:24:36.957Z,121.47
2018-01-27T04:27:04.505Z,124.90
2018-01-27T04:29:32.125Z,123.43
2018-01-27T04:31:59.676Z,135.93
2018-01-27T04:34:28.012Z,138.83
2018-01-27T04:36:55.557Z,126.97
2018-01-27T04:39:23.642Z,121.20
2018-01-27T04:41:51.294Z,142.20
2018-01-27T04:44:18.832Z,125.80
2018-01-27T04:46:46.410Z,128.97
2018-01-27T04:49:13.983Z,130.33
2018-01-27T04:51:41.573Z,141.03
2018-01-27T04:54:09.107Z,124.60
2018-01-27T04:56:37.072Z,122.60
2018-01-27T04:59:04.650Z,137.60
2018-01-27T05:01:32.201Z,133.17
2018-01-27T05:03:59.827Z,123.87
2018-01-27T05:06:27.359Z,118.90
2018-01-27T05:08:55.706Z,132.50
2018-01-27T05:11:23.252Z,119.37
2018-01-27T05:13:50.852Z,137.83
2018-01-27T05:16:18.393Z,127.67
2018-01-27T05:18:46.433Z,121.60
2018-01-27T05:21:13.989Z,122.70
2018-01-27T05:23:41.523Z,132.77
2018-01-27T05:26:09.215Z,114.97
2018-01-27T05:28:36.752Z,125.53
2018-01-27T05:31:04.333Z,129.47
2018-01-27T05:33:31.880Z,146.53
2018-01-27T05:35:59.857Z,120.87
2018-01-27T05:38:27.393Z,122.50
2018-01-27T05:40:54.959Z,119.60
2018-01-27T05:43:22.569Z,125.07
2018-01-27T05:45:50.159Z,131.90
2018-01-27T05:48:18.497Z,130.47
2018-01-27T05:50:46.039Z,130.60
2018-01-27T05:53:14.104Z,145.70
2018-01-27T05:55:41.632Z,129.17
2018-01-27T05:58:09.177Z,128.97
2018-01-27T06:00:36.762Z,113.13
2018-01-27T06:03:04.296Z,128.03
2018-01-27T06:05:31.885Z,134.00
2018-01-27T06:07:59.432Z,115.33
2018-01-27T06:10:27.337Z,112.77
2018-01-27T06:12:54.887Z,122.57
2018-01-27T06:15:22.437Z,122.67
2018-01-27T06:17:50.020Z,124.77
2018-01-27T06:20:17.562Z,120.93
2018-01-27T06:22:45.240Z,130.07
2018-01-27T06:25:12.772Z,121.03
2018-01-27T06:27:40.321Z,111.03
2018-01-27T06:30:08.204Z,116.93
2018-01-27T06:32:35.748Z,131.07
2018-01-27T06:35:03.369Z,119.17
2018-01-27T06:37:31.128Z,123.43
2018-01-27T06:39:58.709Z,119.60
2018-01-27T06:42:27.185Z,120.23
2018-01-27T06:44:56.023Z,131.73
2018-01-27T06:47:23.565Z,134.10
2018-01-27T06:49:51.114Z,115.67
2018-01-27T06:52:18.693Z,132.23
2018-01-27T06:54:46.246Z,135.70
2018-01-27T06:57:13.855Z,130.90
2018-01-27T06:59:41.404Z,118.03
2018-01-27T07:02:09.034Z,135.73
2018-01-27T07:04:36.600Z,138.97
2018-01-27T07:07:04.438Z,136.83
2018-01-27T07:09:32.023Z,118.93
2018-01-27T07:11:59.593Z,127.00
2018-01-27T07:14:27.175Z,140.93
2018-01-27T07:16:54.716Z,125.00
2018-01-27T07:19:22.328Z,132.50
2018-01-27T07:21:50.665Z,142.27
2018-01-27T07:24:18.265Z,142.13
2018-01-27T07:26:46.598Z,129.03
2018-01-27T07:29:14.141Z,124.23
2018-01-27T07:31:41.749Z,115.87
2018-01-27T07:34:09.319Z,169.03
2018-01-27T07:36:37.685Z,145.17
2018-01-27T07:39:05.383Z,140.17
2018-01-27T07:41:32.957Z,146.43
2018-01-27T07:44:00.502Z,148.27
2018-01-27T07:46:28.116Z,136.03
2018-01-27T07:48:57.177Z,130.03
2018-01-27T07:51:24.725Z,135.80
2018-01-27T07:53:52.296Z,136.37
2018-01-27T07:56:19.900Z,137.73
2018-01-27T07:58:48.539Z,129.23
2018-01-27T08:01:16.222Z,134.63
2018-01-27T08:03:43.813Z,126.70
2018-01-27T08:06:11.361Z,142.07
2018-01-27T08:08:38.908Z,137.17
2018-01-27T08:11:06.517Z,139.73
2018-01-27T08:13:34.071Z,139.90
2018-01-27T08:16:01.648Z,142.20
2018-01-27T08:18:29.191Z,128.30
2018-01-27T08:20:56.732Z,128.77
2018-01-27T08:23:25.142Z,126.37
2018-01-27T08:25:52.692Z,120.23
2018-01-27T08:28:20.268Z,130.73
2018-01-27T08:30:47.829Z,144.07
2018-01-27T08:33:15.401Z,137.37
2018-01-27T08:35:43.013Z,142.50
2018-01-27T08:38:10.667Z,148.73
2018-01-27T08:40:38.254Z,137.87
2018-01-27T08:43:05.821Z,127.47
2018-01-27T08:45:33.481Z,126.07
2018-01-27T08:48:01.035Z,134.10
2018-01-27T08:50:28.649Z,108.47
2018-01-27T08:52:56.203Z,118.00
2018-01-27T08:55:23.784Z,122.10
2018-01-27T08:57:52.113Z,119.07
2018-01-27T09:00:19.669Z,110.97
2018-01-27T09:02:47.309Z,103.33
2018-01-27T09:05:14.849Z,119.77
2018-01-27T09:07:43.197Z,132.57
2018-01-27T09:10:10.748Z,120.80
2018-01-27T09:12:38.336Z,124.70
2018-01-27T09:15:05.954Z,109.20
2018-01-27T09:17:33.554Z,111.57
2018-01-27T09:20:01.143Z,125.83
2018-01-27T09:22:28.699Z,125.70
2018-01-27T09:24:56.413Z,114.83
2018-01-27T09:27:23.982Z,102.03
2018-01-27T09:29:51.574Z,112.37
2018-01-27T09:32:19.128Z,122.10
2018-01-27T09:34:47.946Z,129.03
2018-01-27T09:37:15.484Z,122.50
2018-01-27T09:39:43.806Z,107.00
2018-01-27T09:42:11.629Z,118.00
2018-01-27T09:44:39.193Z,139.63
2018-01-27T09:47:06.783Z,109.00
2018-01-27T09:49:34.328Z,127.13
2018-01-27T09:52:01.934Z,121.13
2018-01-27T09:54:29.519Z,118.43
2018-01-27T09:56:57.123Z,103.37
2018-01-27T09:59:26.321Z,116.23
2018-01-27T10:01:53.890Z,108.20
2018-01-27T10:04:21.520Z,104.30
2018-01-27T10:06:49.095Z,103.00
2018-01-27T10:09:16.704Z,116.53
2018-01-27T10:11:45.045Z,104.17
2018-01-27T10:14:12.596Z,88.90
2018-01-27T10:16:40.218Z,107.00
2018-01-27T10:19:07.783Z,89.70
2018-01-27T10:21:35.385Z,99.97
2018-01-27T10:24:02.942Z,87.63
2018-01-27T10:26:30.588Z,97.23
2018-01-27T10:28:58.156Z,87.47
2018-01-27T10:31:25.706Z,92.17
2018-01-27T10:33:53.304Z,94.07
2018-01-27T10:36:20.900Z,102.20
2018-01-27T10:38:49.291Z,110.30
2018-01-27T10:41:16.836Z,91.33
2018-01-27T10:43:45.189Z,110.27
2018-01-27T10:46:14.241Z,100.83
2018-01-27T10:48:42.242Z,92.53
2018-01-27T10:51:09.848Z,89.17
2018-01-27T10:53:37.511Z,87.03
2018-01-27T10:56:05.114Z,83.57
2018-01-27T10:58:32.676Z,81.10
2018-01-27T11:01:00.235Z,82.03
2018-01-27T11:03:27.855Z,83.30
2018-01-27T11:05:55.400Z,82.27
2018-01-27T11:08:23.014Z,100.67
2018-01-27T11:10:50.581Z,97.70
2018-01-27T11:13:18.401Z,119.30
2018-01-27T11:15:45.963Z,91.70
2018-01-27T11:18:13.615Z,89.47
2018-01-27T11:20:41.179Z,83.23
2018-01-27T11:23:08.748Z,77.83
2018-01-27T11:25:36.344Z,87.40
2018-01-27T11:28:03.892Z,77.37
2018-01-27T11:30:31.478Z,74.77
2018-01-27T11:32:59.028Z,74.73
2018-01-27T11:35:26.629Z,70.77
2018-01-27T11:37:54.955Z,87.87
2018-01-27T11:40:22.547Z,98.87
2018-01-27T11:42:50.901Z,83.50
2018-01-27T11:45:18.478Z,88.10
2018-01-27T11:47:46.102Z,98.67
2018-01-27T11:50:13.826Z,86.83
2018-01-27T11:52:42.254Z,85.33
2018-01-27T11:55:09.810Z,83.57
2018-01-27T11:57:37.428Z,88.53
2018-01-27T12:00:05.740Z,81.43
2018-01-27T12:02:33.362Z,77.00
2018-01-27T12:05:00.957Z,89.30
2018-01-27T12:07:28.586Z,101.83
2018-01-27T12:09:56.202Z,87.10
2018-01-27T12:12:23.755Z,85.30
2018-01-27T12:14:51.361Z,88.43
2018-01-27T12:17:18.908Z,91.20
2018-01-27T12:19:47.286Z,79.77
2018-01-27T12:22:14.838Z,81.50
2018-01-27T12:24:42.380Z,77.90
2018-01-27T12:27:10.070Z,78.27
2018-01-27T12:29:37.620Z,65.20
2018-01-27T12:32:05.205Z,80.13
2018-01-27T12:34:33.539Z,92.43
2018-01-27T12:37:01.184Z,81.93
2018-01-27T12:39:28.741Z,92.30
2018-01-27T12:41:56.305Z,74.83
2018-01-27T12:44:23.965Z,78.73
2018-01-27T12:46:51.509Z,91.10
2018-01-27T12:49:19.135Z,69.97
2018-01-27T12:51:47.470Z,76.40
2018-01-27T12:54:15.076Z,74.40
2018-01-27T12:56:43.414Z,84.93
2018-01-27T12:59:11.010Z,69.20
2018-01-27T13:01:39.345Z,94.07
2018-01-27T13:04:06.956Z,86.77
2018-01-27T13:06:34.556Z,83.43
2018-01-27T13:09:02.119Z,87.97
2018-01-27T13:11:29.742Z,82.23
2018-01-27T13:13:57.298Z,73.53
2018-01-27T13:16:24.916Z,72.90
2018-01-27T13:18:52.483Z,76.20
2018-01-27T13:21:20.059Z,88.23
2018-01-27T13:23:47.715Z,82.80
2018-01-27T13:26:15.285Z,81.33
2018-01-27T13:28:43.667Z,82.63
2018-01-27T13:31:11.241Z,71.43
2018-01-27T13:33:38.850Z,83.67
2018-01-27T13:36:06.424Z,80.30
2018-01-27T13:38:34.024Z,91.93
2018-01-27T13:41:01.635Z,100.30
2018-01-27T13:43:29.211Z,86.00
2018-01-27T13:45:57.611Z,83.87
2018-01-27T13:48:25.198Z,71.60
2018-01-27T13:50:52.795Z,87.70
2018-01-27T13:53:20.378Z,84.47
2018-01-27T13:55:48.024Z,75.43
2018-01-27T13:58:16.052Z,89.97
2018-01-27T14:00:43.799Z,79.40
2018-01-27T14:03:11.434Z,89.67
2018-01-27T14:05:39.765Z,81.23
2018-01-27T14:08:07.368Z,95.33
2018-01-27T14:10:34.932Z,93.43
2018-01-27T14:13:02.549Z,78.27
2018-01-27T14:15:30.077Z,80.40
2018-01-27T14:17:57.896Z,84.33
2018-01-27T14:20:25.921Z,83.47
2018-01-27T14:22:53.474Z,85.93
2018-01-27T14:25:21.191Z,84.60
2018-01-27T14:27:48.749Z,81.43
2018-01-27T14:30:16.302Z,82.63
2018-01-27T14:32:43.911Z,98.27
2018-01-27T14:35:11.490Z,85.70
2018-01-27T14:37:39.262Z,88.83
2018-01-27T14:40:06.827Z,94.67
2018-01-27T14:42:34.830Z,79.60
2018-01-27T14:45:02.383Z,93.17
2018-01-27T14:47:29.953Z,90.87
2018-01-27T14:49:57.579Z,87.90
2018-01-27T14:52:25.216Z,87.57
2018-01-27T14:54:52.835Z,102.10
2018-01-27T14:57:20.401Z,83.00
2018-01-27T14:59:48.064Z,93.97
2018-01-27T15:02:16.376Z,89.33
2018-01-27T15:04:43.925Z,92.00
2018-01-27T15:07:11.699Z,94.43
2018-01-27T15:09:39.271Z,101.77
2018-01-27T15:12:09.616Z,87.67
2018-01-27T15:14:37.158Z,86.33
2018-01-27T15:17:04.703Z,85.83
2018-01-27T15:19:32.548Z,87.00
2018-01-27T15:22:00.106Z,99.93
2018-01-27T15:24:28.457Z,99.60
2018-01-27T15:26:56.045Z,106.13
2018-01-27T15:29:24.365Z,98.13
2018-01-27T15:31:51.960Z,107.40
2018-01-27T15:34:19.512Z,103.57
2018-01-27T15:36:47.273Z,94.47
2018-01-27T15:39:14.814Z,105.20
2018-01-27T15:41:42.422Z,93.23
2018-01-27T15:44:10.873Z,100.53
2018-01-27T15:46:38.442Z,88.40
2018-01-27T15:49:06.157Z,105.90
2018-01-27T15:51:33.707Z,98.13
2018-01-27T15:54:01.303Z,114.27
2018-01-27T15:56:28.845Z,124.50
2018-01-27T15:58:56.444Z,117.80
2018-01-27T16:01:24.005Z,101.23
2018-01-27T16:03:52.324Z,112.17
2018-01-27T16:06:19.903Z,111.20
2018-01-27T16:08:47.454Z,113.43
2018-01-27T16:11:15.038Z,90.27
2018-01-27T16:13:42.584Z,103.53
2018-01-27T16:16:10.474Z,89.80
2018-01-27T16:18:38.185Z,101.77
2018-01-27T16:21:05.760Z,84.93
2018-01-27T16:23:33.345Z,123.20
2018-01-27T16:26:00.893Z,117.30
2018-01-27T16:28:28.489Z,97.47
2018-01-27T16:30:57.541Z,91.93
2018-01-27T16:33:25.140Z,101.67
2018-01-27T16:35:52.754Z,94.53
2018-01-27T16:38:20.303Z,98.80
2018-01-27T16:40:48.029Z,109.40
2018-01-27T16:43:15.593Z,125.80
2018-01-27T16:45:43.967Z,107.30
2018-01-27T16:48:11.527Z,107.53
2018-01-27T16:50:39.568Z,112.60
2018-01-27T16:53:07.108Z,112.27
2018-01-27T16:55:34.839Z,130.80
2018-01-27T16:58:02.415Z,114.80
2018-01-27T17:00:30.054Z,132.73
2018-01-27T17:02:58.409Z,117.23
2018-01-27T17:05:27.476Z,117.13
2018-01-27T17:07:55.058Z,121.70
2018-01-27T17:10:22.764Z,115.83
2018-01-27T17:12:51.078Z,124.87
2018-01-27T17:15:18.653Z,140.30
2018-01-27T17:17:46.212Z,129.63
2018-01-27T17:20:13.805Z,120.50
2018-01-27T17:22:42.424Z,120.67
2018-01-27T17:25:10.523Z,115.40
2018-01-27T17:27:38.122Z,107.47
2018-01-27T17:30:05.702Z,126.80
2018-01-27T17:32:33.248Z,108.60
2018-01-27T17:35:00.805Z,113.37
2018-01-27T17:37:29.145Z,132.13
2018-01-27T17:39:56.695Z,125.27
2018-01-27T17:42:24.305Z,112.03
2018-01-27T17:44:51.883Z,108.83
2018-01-27T17:47:19.502Z,101.63
2018-01-27T17:49:47.048Z,99.10
2018-01-27T17:52:14.621Z,114.27
2018-01-27T17:54:43.052Z,102.93
2018-01-27T17:57:10.623Z,107.37
2018-01-27T17:59:38.213Z,107.37
2018-01-27T18:02:05.810Z,106.73
2018-01-27T18:04:33.397Z,114.00
2018-01-27T18:07:00.929Z,102.43
2018-01-27T18:09:28.508Z,104.40
2018-01-27T18:11:56.071Z,148.87
2018-01-27T18:14:23.629Z,114.60
2018-01-27T18:16:51.407Z,137.43
2018-01-27T18:19:18.926Z,140.30
2018-01-27T18:21:48.186Z,132.93
2018-01-27T18:24:15.734Z,207.07
2018-01-27T18:26:43.355Z,411.67
2018-01-27T18:29:11.006Z,309.53
2018-01-27T18:31:39.321Z,470.37
2018-01-27T18:34:07.098Z,484.07
2018-01-27T18:36:34.653Z,594.13
2018-01-27T18:39:02.268Z,502.77
2018-01-27T18:41:30.673Z,412.27
2018-01-27T18:43:58.251Z,431.10
2018-01-27T18:46:25.806Z,472.27
2018-01-27T18:48:53.388Z,517.00
2018-01-27T18:51:20.931Z,420.93
2018-01-27T18:53:48.484Z,357.67
2018-01-27T18:56:16.080Z,388.53
2018-01-27T18:58:43.625Z,333.80
2018-01-27T19:01:11.217Z,445.40
2018-01-27T19:03:39.537Z,410.97
2018-01-27T19:06:07.136Z,457.63
2018-01-27T19:08:34.693Z,278.90
2018-01-27T19:11:02.307Z,237.90
2018-01-27T19:13:29.865Z,343.17
2018-01-27T19:15:57.471Z,247.40
2018-01-27T19:18:25.085Z,145.77
2018-01-27T19:20:52.641Z,166.93
2018-01-27T19:23:20.254Z,264.70
2018-01-27T19:25:47.838Z,170.30
2018-01-27T19:28:16.192Z,202.03
2018-01-27T19:30:43.749Z,139.80
2018-01-27T19:33:11.305Z,125.37
2018-01-27T19:35:38.931Z,119.03
2018-01-27T19:38:06.465Z,119.37
2018-01-27T19:40:34.065Z,126.30
2018-01-27T19:43:04.137Z,103.10
2018-01-27T19:45:32.510Z,123.20
2018-01-27T19:48:00.086Z,147.53
2018-01-27T19:50:27.628Z,120.73
2018-01-27T19:52:55.220Z,197.00
2018-01-27T19:55:22.786Z,128.40
2018-01-27T19:57:50.370Z,115.63
2018-01-27T20:00:17.914Z,170.33
2018-01-27T20:02:45.505Z,252.77
2018-01-27T20:05:13.061Z,377.30
2018-01-27T20:07:40.623Z,278.53
2018-01-27T20:10:08.210Z,218.87
2018-01-27T20:12:37.391Z,186.23
2018-01-27T20:15:05.000Z,182.47
2018-01-27T20:17:32.574Z,242.50
2018-01-27T20:20:00.164Z,255.20
2018-01-27T20:22:27.700Z,178.70
2018-01-27T20:24:55.412Z,155.20
2018-01-27T20:27:24.069Z,137.03
2018-01-27T20:29:51.605Z,98.87
2018-01-27T20:32:19.198Z,92.30
2018-01-27T20:34:46.744Z,107.47
2018-01-27T20:37:16.138Z,97.07
2018-01-27T20:39:43.833Z,91.67
2018-01-27T20:42:12.196Z,83.23
2018-01-27T20:44:40.553Z,75.70
2018-01-27T20:47:08.123Z,63.03
2018-01-27T20:49:35.719Z,66.67
2018-01-27T20:52:04.078Z,69.37
2018-01-27T20:54:32.447Z,56.77
2018-01-27T20:57:00.002Z,55.50
2018-01-27T20:59:27.622Z,49.60
2018-01-27T21:01:55.170Z,50.07
2018-01-27T21:04:22.910Z,48.37
2018-01-27T21:06:51.279Z,40.60
2018-01-27T21:09:19.636Z,49.50
2018-01-27T21:11:47.942Z,39.93
2018-01-27T21:14:16.273Z,38.00
2018-01-27T21:16:44.050Z,42.10
2018-01-27T21:19:11.590Z,45.63
2018-01-27T21:21:39.143Z,53.57
2018-01-27T21:24:06.749Z,43.20
2018-01-27T21:26:34.358Z,38.17
2018-01-27T21:29:01.956Z,36.03
2018-01-27T21:31:29.508Z,37.87
2018-01-27T21:33:57.141Z,35.63
2018-01-27T21:36:25.061Z,29.20
2018-01-27T21:38:52.655Z,34.20
2018-01-27T21:41:20.322Z,48.07
2018-01-27T21:43:47.865Z,39.70
2018-01-27T21:46:15.468Z,43.03
2018-01-27T21:48:43.020Z,28.10
2018-01-27T21:51:10.604Z,29.53
2018-01-27T21:53:38.150Z,26.27
2018-01-27T21:56:06.008Z,27.50
2018-01-27T21:58:33.548Z,31.83
2018-01-27T22:01:01.084Z,32.23
2018-01-27T22:03:31.736Z,28.20
2018-01-27T22:05:59.284Z,24.17
2018-01-27T22:08:26.861Z,26.20
2018-01-27T22:10:54.410Z,27.60
2018-01-27T22:13:22.208Z,31.40
2018-01-27T22:15:49.780Z,26.70
2018-01-27T22:18:17.342Z,24.93
2018-01-27T22:20:44.940Z,22.80
2018-01-27T22:23:13.797Z,26.80
2018-01-27T22:25:41.443Z,26.07
2018-01-27T22:28:09.022Z,20.80
2018-01-27T22:30:38.117Z,25.13
2018-01-27T22:33:05.702Z,33.40
2018-01-27T22:35:34.067Z,35.70
2018-01-27T22:38:01.619Z,26.27
2018-01-27T22:40:29.174Z,26.57
2018-01-27T22:42:58.257Z,25.47
2018-01-27T22:45:25.854Z,28.20
2018-01-27T22:47:54.220Z,23.90
2018-01-27T22:50:21.786Z,23.80
2018-01-27T22:52:50.367Z,25.80
2018-01-27T22:55:17.928Z,23.60
2018-01-27T22:57:46.272Z,27.20
2018-01-27T23:00:13.821Z,29.17
2018-01-27T23:02:41.455Z,24.60
2018-01-27T23:05:10.690Z,25.87
2018-01-27T23:07:38.222Z,28.90
2018-01-27T23:10:05.904Z,22.90
2018-01-27T23:12:33.448Z,21.77
2018-01-27T23:15:01.029Z,28.67
2018-01-27T23:17:28.576Z,22.30
2018-01-27T23:19:56.153Z,33.17
2018-01-27T23:22:23.698Z,23.60
2018-01-27T23:24:51.246Z,25.10
2018-01-27T23:27:19.036Z,24.30
2018-01-27T23:29:46.854Z,25.40
2018-01-27T23:32:15.253Z,24.63
2018-01-27T23:34:42.808Z,23.17
2018-01-27T23:37:10.413Z,36.00
2018-01-27T23:39:38.017Z,20.90
2018-01-27T23:42:05.600Z,14.50
2018-01-27T23:44:33.160Z,18.33
2018-01-27T23:47:00.690Z,16.00
2018-01-27T23:49:28.265Z,17.87
2018-01-27T23:51:55.822Z,15.00
2018-01-27T23:54:23.410Z,15.00
2018-01-27T23:56:50.951Z,13.67
2018-01-27T23:59:18.708Z,13.70
